Time;durP1;ratioP1;P1;durP2;ratioP2;P2;SDS_P1;SDS_P2;PMS_P1;PMS_P2;Temp;Humidity;BMP_temperature;BMP_pressure;BME280_temperature;BME280_humidity;BME280_pressure;Samples;Min_cycle;Max_cycle;Signal;HPM_P1;HPM_P2
2022/01/18 00:04:28;;;;;;;8.10;3.25;;;7.00;99.90;;;;;;10345989;28;20204;-59
2022/01/18 00:09:30;;;;;;;10.23;2.92;;;7.00;99.90;;;;;;10345559;28;20091;-59
2022/01/18 00:14:44;;;;;;;9.38;3.03;;;7.00;99.90;;;;;;10340741;28;20116;-60
2022/01/18 00:19:56;;;;;;;9.48;2.75;;;7.00;99.90;;;;;;10342837;28;20100;-59
2022/01/18 00:25:00;;;;;;;9.52;2.95;;;6.90;99.90;;;;;;10343816;28;20176;-59
2022/01/18 00:30:18;;;;;;;12.32;3.17;;;6.90;99.90;;;;;;10343757;28;21218;-60
2022/01/18 00:35:20;;;;;;;9.77;2.50;;;6.90;99.90;;;;;;10347345;28;20556;-59
2022/01/18 00:40:22;;;;;;;7.95;2.72;;;6.90;99.90;;;;;;10345024;28;20042;-59
2022/01/18 00:45:23;;;;;;;10.05;3.08;;;6.80;99.90;;;;;;10340267;28;20078;-59
2022/01/18 00:50:30;;;;;;;7.72;2.50;;;6.80;99.90;;;;;;10341291;28;20057;-59
2022/01/18 00:55:36;;;;;;;10.27;2.63;;;6.80;99.90;;;;;;10343940;28;20049;-59
2022/01/18 01:00:37;;;;;;;13.18;3.28;;;6.80;99.90;;;;;;10343523;28;20524;-59
2022/01/18 01:05:39;;;;;;;10.98;2.38;;;6.70;99.90;;;;;;10300673;28;20069;-59
2022/01/18 01:10:41;;;;;;;7.60;2.95;;;6.70;99.90;;;;;;10304016;28;20108;-59
2022/01/18 01:16:43;;;;;;;9.85;3.03;;;6.80;99.90;;;;;;10306714;28;20516;-59
2022/01/18 01:42:31;;;;;;;13.00;2.45;;;6.60;99.90;;;;;;10293313;28;20077;-60
2022/01/18 01:47:37;;;;;;;11.68;3.17;;;6.60;99.90;;;;;;10303607;28;20054;-59
2022/01/18 01:52:40;;;;;;;13.55;3.35;;;6.60;99.90;;;;;;10299363;28;20057;-59
2022/01/18 01:57:41;;;;;;;5.78;1.85;;;6.60;99.90;;;;;;10302886;28;20202;-59
2022/01/18 02:02:44;;;;;;;9.13;2.20;;;6.60;99.90;;;;;;10296000;28;20058;-59
2022/01/18 02:07:46;;;;;;;8.73;2.50;;;6.60;99.90;;;;;;10302770;28;20042;-59
2022/01/18 02:12:48;;;;;;;6.53;2.60;;;6.60;99.90;;;;;;10296477;28;20499;-59
2022/01/18 02:23:18;;;;;;;7.57;2.30;;;6.60;99.90;;;;;;10305530;28;20058;-59
2022/01/18 02:28:24;;;;;;;8.25;1.83;;;6.60;99.90;;;;;;10304373;28;20074;-59
2022/01/18 02:33:27;;;;;;;12.90;2.42;;;6.50;99.90;;;;;;10306747;28;20100;-59
2022/01/18 02:38:28;;;;;;;10.85;3.53;;;6.50;99.90;;;;;;10306898;28;20113;-59
2022/01/18 02:43:50;;;;;;;8.13;2.03;;;6.50;99.90;;;;;;10303189;28;20074;-59
2022/01/18 02:48:54;;;;;;;10.77;2.25;;;6.50;99.90;;;;;;10305969;28;20054;-59
2022/01/18 02:54:05;;;;;;;9.75;2.63;;;6.50;99.90;;;;;;10300987;28;20498;-60
2022/01/18 02:59:21;;;;;;;9.57;2.30;;;6.50;99.90;;;;;;10309859;28;20104;-59
2022/01/18 03:04:23;;;;;;;7.10;2.35;;;6.50;99.90;;;;;;10297292;28;20124;-59
2022/01/18 03:09:24;;;;;;;7.65;2.83;;;6.50;99.90;;;;;;10307149;28;20074;-59
2022/01/18 03:14:26;;;;;;;11.57;2.78;;;6.50;99.90;;;;;;10303741;28;20833;-59
2022/01/18 03:19:28;;;;;;;15.68;3.95;;;6.50;99.90;;;;;;10303404;28;20283;-60
2022/01/18 03:29:32;;;;;;;7.03;1.15;;;6.50;99.90;;;;;;10300270;28;21174;-59
2022/01/18 03:34:34;;;;;;;5.07;0.63;;;6.50;99.90;;;;;;10308321;28;20135;-60
2022/01/18 03:39:35;;;;;;;5.53;0.55;;;6.50;99.90;;;;;;10297402;28;20074;-59
2022/01/18 03:44:37;;;;;;;1.85;0.40;;;6.50;99.90;;;;;;10304088;28;20136;-60
2022/01/18 03:49:38;;;;;;;7.63;0.98;;;6.50;99.90;;;;;;10301917;28;20074;-59
2022/01/18 03:54:47;;;;;;;2.53;0.40;;;6.50;99.90;;;;;;10302266;28;20066;-59
2022/01/18 03:59:49;;;;;;;2.83;0.50;;;6.40;99.90;;;;;;10304309;28;20620;-59
2022/01/18 04:04:51;;;;;;;4.22;0.68;;;6.40;99.90;;;;;;10302200;28;20050;-60
2022/01/18 04:09:52;;;;;;;2.63;0.13;;;6.40;99.90;;;;;;10302324;28;20053;-60
2022/01/18 04:14:54;;;;;;;3.45;0.70;;;6.30;99.90;;;;;;10297655;28;20066;-60
2022/01/18 04:30:37;;;;;;;3.60;0.38;;;6.30;99.90;;;;;;10298555;28;20042;-59
2022/01/18 04:35:39;;;;;;;11.73;1.63;;;6.30;99.90;;;;;;10298206;28;20450;-58
2022/01/18 04:40:42;;;;;;;8.63;1.70;;;6.30;99.90;;;;;;10299857;28;20130;-59
2022/01/18 04:51:08;;;;;;;16.30;3.78;;;6.20;99.90;;;;;;10298922;28;20057;-59
2022/01/18 04:56:15;;;;;;;19.95;4.22;;;6.20;99.90;;;;;;10300750;28;20056;-59
2022/01/18 05:01:17;;;;;;;19.17;3.10;;;6.20;99.90;;;;;;10301879;28;20437;-59
2022/01/18 05:06:20;;;;;;;11.60;1.58;;;6.20;99.90;;;;;;10300104;28;20608;-59
2022/01/18 05:11:24;;;;;;;13.20;1.52;;;6.20;99.90;;;;;;10304974;28;20038;-59
2022/01/18 05:16:43;;;;;;;12.90;1.70;;;6.10;99.90;;;;;;10297929;28;20046;-59
2022/01/18 05:26:58;;;;;;;4.57;0.60;;;6.20;99.90;;;;;;10301321;28;20085;-60
2022/01/18 05:31:59;;;;;;;4.68;0.80;;;6.20;99.90;;;;;;10300056;28;20602;-60
2022/01/18 05:37:01;;;;;;;1.85;0.28;;;6.20;99.90;;;;;;10300654;28;20045;-58
2022/01/18 05:42:03;;;;;;;5.45;0.82;;;6.20;99.90;;;;;;10300820;28;20046;-59
2022/01/18 05:47:05;;;;;;;6.43;0.40;;;6.20;99.90;;;;;;10302772;28;20042;-59
2022/01/18 05:52:07;;;;;;;5.45;0.40;;;6.20;99.90;;;;;;10298090;28;20053;-58
2022/01/18 05:57:08;;;;;;;5.88;0.60;;;6.20;99.90;;;;;;10303696;28;20124;-59
2022/01/18 06:02:34;;;;;;;4.30;0.40;;;6.20;99.90;;;;;;10300762;28;20575;-60
2022/01/18 06:07:36;;;;;;;4.55;0.68;;;6.10;99.90;;;;;;10307872;28;20100;-59
2022/01/18 06:12:39;;;;;;;2.63;0.57;;;6.00;99.90;;;;;;10313237;28;20106;-59
2022/01/18 06:17:41;;;;;;;3.47;0.50;;;5.90;99.90;;;;;;10299606;28;20054;-59
2022/01/18 06:22:43;;;;;;;5.30;0.60;;;5.90;99.90;;;;;;10305939;28;20050;-59
2022/01/18 06:27:45;;;;;;;3.60;0.52;;;5.80;99.90;;;;;;10303226;28;20092;-58
2022/01/18 06:32:47;;;;;;;4.63;0.60;;;5.80;99.90;;;;;;10310208;28;20046;-60
2022/01/18 06:37:50;;;;;;;8.05;0.50;;;5.80;99.90;;;;;;10312266;28;20747;-59
2022/01/18 06:42:52;;;;;;;3.03;0.75;;;5.70;99.90;;;;;;10310277;28;20482;-58
2022/01/18 06:47:54;;;;;;;3.20;0.52;;;5.70;99.90;;;;;;10307757;28;20077;-60
2022/01/18 06:52:56;;;;;;;4.55;0.93;;;5.70;99.90;;;;;;10287982;28;20496;-59
2022/01/18 06:57:58;;;;;;;2.33;0.50;;;5.60;99.90;;;;;;10302694;28;20074;-58
2022/01/18 07:03:00;;;;;;;6.88;1.08;;;5.60;99.90;;;;;;10308628;28;20066;-58
2022/01/18 07:08:03;;;;;;;2.08;0.35;;;5.60;99.90;;;;;;10309408;28;20381;-58
2022/01/18 07:13:04;;;;;;;5.85;0.85;;;5.70;99.90;;;;;;10307044;28;20137;-58
2022/01/18 07:18:09;;;;;;;5.57;1.40;;;5.50;99.90;;;;;;10307246;28;20567;-61
2022/01/18 07:23:13;;;;;;;7.10;1.00;;;5.60;99.90;;;;;;10305277;28;20046;-61
2022/01/18 07:28:17;;;;;;;6.15;0.73;;;5.70;99.90;;;;;;10300156;28;20070;-61
2022/01/18 07:33:19;;;;;;;5.35;0.90;;;5.70;99.90;;;;;;10305750;28;20042;-61
2022/01/18 07:38:20;;;;;;;10.43;2.00;;;5.80;99.90;;;;;;10305700;28;20066;-61
2022/01/18 07:43:22;;;;;;;4.35;1.60;;;5.80;99.90;;;;;;10302787;28;20113;-61
2022/01/18 07:48:24;;;;;;;5.32;1.20;;;5.90;99.90;;;;;;10307721;28;20055;-61
2022/01/18 07:53:26;;;;;;;9.30;2.50;;;5.90;99.90;;;;;;10301534;28;20050;-60
2022/01/18 07:58:28;;;;;;;9.80;4.35;;;5.90;99.90;;;;;;10307323;28;20054;-61
2022/01/18 08:03:30;;;;;;;8.57;2.78;;;6.00;99.90;;;;;;10302840;28;20098;-61
2022/01/18 08:08:32;;;;;;;8.25;2.30;;;6.10;99.90;;;;;;10307296;28;20182;-61
2022/01/18 08:13:40;;;;;;;10.75;1.88;;;6.20;99.90;;;;;;10304056;28;20100;-61
2022/01/18 08:18:42;;;;;;;12.55;1.98;;;6.10;99.90;;;;;;10297396;28;20046;-61
2022/01/18 08:23:44;;;;;;;14.50;3.92;;;6.30;99.90;;;;;;10300054;28;20050;-61
2022/01/18 08:28:46;;;;;;;6.18;0.95;;;6.40;99.90;;;;;;10318262;28;20502;-61
2022/01/18 08:33:48;;;;;;;7.65;2.47;;;6.50;99.90;;;;;;10302706;28;20129;-61
2022/01/18 08:38:49;;;;;;;7.47;2.75;;;6.50;99.90;;;;;;10303849;28;20053;-61
2022/01/18 08:43:51;;;;;;;14.70;2.55;;;6.60;99.90;;;;;;10298031;28;20054;-60
2022/01/18 08:48:53;;;;;;;9.73;2.03;;;6.70;99.90;;;;;;10306466;28;20041;-60
2022/01/18 08:53:54;;;;;;;5.65;1.13;;;6.80;99.90;;;;;;10298777;28;20050;-61
2022/01/18 08:58:57;;;;;;;6.55;0.80;;;6.90;99.90;;;;;;10299832;28;20053;-61
2022/01/18 09:04:01;;;;;;;2.13;0.68;;;7.00;99.90;;;;;;10299640;28;20045;-62
2022/01/18 09:09:04;;;;;;;4.80;0.88;;;7.00;99.90;;;;;;10299359;28;20124;-61
2022/01/18 09:14:06;;;;;;;18.35;5.65;;;7.20;99.90;;;;;;10293127;28;20085;-62
2022/01/18 09:19:08;;;;;;;15.52;4.15;;;7.40;99.90;;;;;;10300290;28;20556;-61
2022/01/18 09:24:10;;;;;;;8.30;2.65;;;7.50;99.90;;;;;;10296299;28;20485;-61
2022/01/18 09:29:14;;;;;;;11.25;2.33;;;7.60;99.90;;;;;;10300124;28;20054;-61
2022/01/18 09:34:15;;;;;;;9.73;3.17;;;7.80;99.90;;;;;;10299044;28;20054;-61
2022/01/18 09:39:17;;;;;;;15.73;2.97;;;7.90;99.90;;;;;;10297840;28;20129;-61
2022/01/18 09:44:20;;;;;;;5.55;1.70;;;8.00;99.90;;;;;;10299844;28;20078;-61
2022/01/18 09:49:24;;;;;;;6.28;1.25;;;7.80;99.90;;;;;;10301217;28;20046;-62
2022/01/18 09:54:26;;;;;;;4.65;1.00;;;7.90;99.90;;;;;;10297046;28;20800;-61
2022/01/18 09:59:28;;;;;;;6.43;1.80;;;7.80;99.90;;;;;;10301782;28;20685;-61
2022/01/18 10:04:32;;;;;;;4.82;1.10;;;7.90;99.90;;;;;;10296342;28;20554;-61
2022/01/18 10:09:34;;;;;;;1.55;0.20;;;7.90;99.90;;;;;;10299157;28;20128;-61
2022/01/18 10:14:58;;;;;;;2.40;0.45;;;8.00;99.90;;;;;;10299238;28;20125;-61
2022/01/18 10:20:09;;;;;;;4.10;0.52;;;8.10;99.90;;;;;;10297875;28;20940;-61
2022/01/18 10:25:19;;;;;;;3.35;0.50;;;8.10;99.90;;;;;;10296143;28;20054;-61
2022/01/18 10:30:33;;;;;;;3.25;1.30;;;8.30;99.90;;;;;;10299787;28;20058;-61
2022/01/18 10:35:35;;;;;;;2.83;1.10;;;8.50;99.90;;;;;;10306033;28;21125;-61
2022/01/18 10:40:36;;;;;;;3.20;1.13;;;8.70;99.90;;;;;;10297995;28;20054;-61
2022/01/18 10:45:39;;;;;;;5.05;0.80;;;8.70;99.90;;;;;;10307840;28;20077;-62
2022/01/18 10:50:45;;;;;;;7.57;0.85;;;8.40;99.90;;;;;;10307114;28;20138;-61
2022/01/18 10:55:50;;;;;;;6.13;1.00;;;8.50;99.40;;;;;;10306344;28;20081;-61
2022/01/18 11:00:51;;;;;;;4.35;1.40;;;8.60;99.90;;;;;;10306566;28;20579;-61
2022/01/18 11:05:53;;;;;;;4.43;0.75;;;8.60;99.10;;;;;;10304267;28;20046;-61
2022/01/18 11:10:55;;;;;;;1.85;0.30;;;8.90;98.00;;;;;;10305271;28;20045;-61
2022/01/18 11:16:14;;;;;;;6.07;1.00;;;9.00;94.50;;;;;;10304710;28;20213;-61
2022/01/18 11:21:19;;;;;;;3.72;0.57;;;9.10;95.80;;;;;;10304731;28;20158;-62
2022/01/18 11:26:23;;;;;;;4.63;0.60;;;9.30;98.50;;;;;;10308543;28;20108;-61
2022/01/18 11:31:25;;;;;;;3.92;0.70;;;9.30;94.70;;;;;;10303154;28;20081;-61
2022/01/18 11:36:33;;;;;;;1.33;0.50;;;9.50;95.60;;;;;;10311005;28;20134;-60
2022/01/18 11:41:35;;;;;;;;;;;9.60;93.80;;;;;;10306037;28;20339;-61
2022/01/18 11:46:43;;;;;;;1.95;0.25;;;9.60;92.50;;;;;;10308565;28;19953;-63
2022/01/18 11:51:58;;;;;;;1.45;0.30;;;9.70;92.30;;;;;;10306166;28;20485;-62
2022/01/18 11:57:15;;;;;;;1.63;0.30;;;9.70;91.20;;;;;;10301605;28;20059;-61
2022/01/18 12:02:29;;;;;;;0.45;0.20;;;9.70;91.70;;;;;;10303732;28;20050;-62
2022/01/18 12:07:34;;;;;;;2.17;0.28;;;9.70;91.50;;;;;;10303306;28;20050;-61
2022/01/18 12:12:44;;;;;;;5.82;0.10;;;9.70;91.00;;;;;;10305806;28;20049;-62
2022/01/18 12:18:04;;;;;;;1.75;0.35;;;9.60;90.20;;;;;;10304444;28;20498;-62
2022/01/18 12:23:17;;;;;;;2.60;0.60;;;9.60;90.60;;;;;;10303370;28;20043;-61
2022/01/18 12:33:53;;;;;;;1.27;0.22;;;9.60;88.60;;;;;;10307527;28;20108;-61
2022/01/18 12:38:59;;;;;;;2.25;0.20;;;9.40;89.90;;;;;;10299566;28;20054;-62
2022/01/18 12:49:22;;;;;;;1.80;0.40;;;9.50;90.10;;;;;;10304546;28;20074;-61
2022/01/18 12:54:43;;;;;;;0.68;0.20;;;9.70;88.10;;;;;;10296953;28;20053;-61
2022/01/18 13:00:06;;;;;;;16.55;0.65;;;9.80;86.90;;;;;;10291162;28;20038;-61
2022/01/18 13:05:08;;;;;;;5.10;0.60;;;9.80;86.40;;;;;;10295843;28;20548;-62
2022/01/18 13:10:10;;;;;;;1.70;0.40;;;9.80;88.20;;;;;;10300179;28;20086;-62
2022/01/18 13:15:21;;;;;;;0.35;0.10;;;9.70;86.50;;;;;;10297277;28;20113;-61
2022/01/18 13:25:57;;;;;;;0.65;0.10;;;9.70;86.20;;;;;;10302183;28;20057;-62
2022/01/18 13:31:20;;;;;;;0.52;0.13;;;9.60;85.30;;;;;;10297392;28;20101;-61
2022/01/18 13:36:23;;;;;;;1.42;0.20;;;9.60;86.90;;;;;;10301047;28;20050;-61
2022/01/18 13:41:25;;;;;;;1.27;0.28;;;9.50;86.70;;;;;;10296539;28;20038;-61
2022/01/18 13:46:29;;;;;;;1.63;0.20;;;9.50;88.10;;;;;;10301137;28;20402;-61
2022/01/18 13:51:30;;;;;;;2.20;0.38;;;9.50;87.50;;;;;;10300942;28;20997;-61
2022/01/18 13:56:32;;;;;;;0.10;0.10;;;9.40;87.20;;;;;;10304404;28;20058;-62
2022/01/18 14:01:36;;;;;;;2.30;0.20;;;9.20;86.50;;;;;;10300351;28;20078;-61
2022/01/18 14:06:40;;;;;;;0.80;0.15;;;9.10;87.70;;;;;;10302196;28;20077;-61
2022/01/18 14:11:54;;;;;;;0.55;0.30;;;9.20;87.60;;;;;;10296565;28;20051;-61
2022/01/18 14:16:59;;;;;;;1.38;0.15;;;8.90;87.60;;;;;;10292728;28;20050;-62
2022/01/18 14:22:03;;;;;;;2.92;0.20;;;8.80;90.10;;;;;;10307567;28;20057;-61
2022/01/18 14:27:09;;;;;;;1.33;0.10;;;8.90;90.80;;;;;;10304412;28;20061;-61
2022/01/18 14:32:21;;;;;;;4.03;0.30;;;9.00;89.40;;;;;;10307080;28;20552;-61
2022/01/18 14:37:35;;;;;;;1.58;0.25;;;9.00;90.40;;;;;;10309309;28;20090;-61
2022/01/18 14:42:46;;;;;;;1.33;0.20;;;9.00;90.40;;;;;;10305502;28;20078;-61
2022/01/18 14:47:48;;;;;;;0.50;0.10;;;8.90;90.10;;;;;;10302528;28;20074;-62
2022/01/18 14:52:51;;;;;;;0.30;0.20;;;8.80;90.60;;;;;;10306937;28;20050;-61
2022/01/18 14:57:54;;;;;;;3.05;0.85;;;8.90;90.20;;;;;;10307759;28;20120;-62
2022/01/18 15:02:57;;;;;;;1.75;0.25;;;8.80;90.50;;;;;;10305234;28;20104;-62
2022/01/18 15:08:00;;;;;;;2.25;0.30;;;8.80;90.30;;;;;;10308568;28;20497;-61
2022/01/18 15:13:05;;;;;;;3.70;0.30;;;8.80;91.10;;;;;;10310012;28;20117;-62
2022/01/18 15:18:07;;;;;;;1.50;0.30;;;8.70;91.30;;;;;;10302582;28;20069;-62
2022/01/18 15:23:08;;;;;;;1.20;0.45;;;8.60;91.20;;;;;;10304529;28;20089;-63
2022/01/18 15:28:27;;;;;;;1.08;0.20;;;8.60;92.40;;;;;;10297790;28;20054;-63
2022/01/18 15:33:29;;;;;;;0.52;0.20;;;8.50;92.20;;;;;;10304834;28;20054;-63
2022/01/18 15:38:31;;;;;;;0.70;0.20;;;8.50;92.40;;;;;;10297000;28;20526;-62
2022/01/18 15:43:33;;;;;;;6.00;0.20;;;8.40;92.80;;;;;;10302357;28;20102;-64
2022/01/18 15:48:35;;;;;;;1.13;0.65;;;8.40;92.80;;;;;;10302244;28;20113;-63
2022/01/18 15:53:37;;;;;;;2.22;0.20;;;8.30;93.70;;;;;;10304152;28;20057;-63
2022/01/18 15:58:38;;;;;;;0.88;0.10;;;8.20;94.00;;;;;;10304538;28;20050;-63
2022/01/18 16:03:40;;;;;;;0.60;0.20;;;8.20;94.20;;;;;;10303766;28;20473;-63
2022/01/18 16:08:42;;;;;;;1.05;0.30;;;8.10;94.10;;;;;;10310094;28;20396;-63
2022/01/18 16:13:44;;;;;;;1.98;0.63;;;8.10;95.10;;;;;;10302367;28;20133;-63
2022/01/18 16:18:46;;;;;;;2.53;0.20;;;8.00;95.20;;;;;;10301873;28;20054;-63
2022/01/18 16:23:48;;;;;;;2.42;0.70;;;8.00;95.60;;;;;;10306408;28;20100;-63
2022/01/18 16:28:49;;;;;;;11.45;0.50;;;8.00;96.80;;;;;;10306713;28;20275;-63
2022/01/18 16:33:55;;;;;;;3.55;0.45;;;7.90;98.10;;;;;;10299714;28;20054;-60
2022/01/18 16:38:57;;;;;;;3.28;0.50;;;7.90;97.90;;;;;;10304255;28;20042;-60
2022/01/18 16:43:59;;;;;;;3.42;0.70;;;7.90;99.90;;;;;;10299703;28;20069;-60
2022/01/18 16:49:02;;;;;;;3.90;0.77;;;7.90;97.90;;;;;;10304650;28;20437;-61
2022/01/18 16:54:04;;;;;;;8.55;1.05;;;7.80;98.80;;;;;;10300381;28;20944;-60
2022/01/18 16:59:06;;;;;;;1.42;0.40;;;7.80;97.60;;;;;;10299258;28;20050;-61
2022/01/18 17:04:09;;;;;;;2.17;1.00;;;7.70;98.10;;;;;;10294456;28;20066;-60
2022/01/18 17:09:12;;;;;;;1.65;0.60;;;7.70;99.80;;;;;;10301122;28;20074;-61
2022/01/18 17:14:13;;;;;;;1.48;0.40;;;7.50;99.90;;;;;;10301530;28;20043;-60
2022/01/18 17:19:15;;;;;;;3.15;0.70;;;7.50;99.90;;;;;;10306126;28;20050;-60
2022/01/18 17:24:18;;;;;;;3.92;1.33;;;7.40;99.90;;;;;;10300853;28;20054;-59
2022/01/18 17:29:19;;;;;;;3.22;0.77;;;7.40;99.90;;;;;;10299202;28;20100;-60
2022/01/18 17:34:22;;;;;;;1.00;0.38;;;7.30;99.90;;;;;;10290631;28;20203;-60
2022/01/18 17:39:24;;;;;;;3.17;0.82;;;7.30;99.90;;;;;;10297064;28;20057;-59
2022/01/18 17:44:25;;;;;;;1.35;0.60;;;7.30;99.90;;;;;;10302418;28;20070;-60
2022/01/18 17:49:27;;;;;;;1.45;0.50;;;7.20;99.90;;;;;;10301874;28;20077;-60
2022/01/18 17:54:29;;;;;;;2.05;0.75;;;7.20;99.90;;;;;;10295700;28;20105;-60
2022/01/18 17:59:32;;;;;;;2.35;0.85;;;7.30;99.90;;;;;;10297282;28;20042;-60
2022/01/18 18:04:34;;;;;;;0.68;0.40;;;7.20;99.90;;;;;;10293002;28;20104;-60
2022/01/18 18:09:47;;;;;;;5.70;1.13;;;7.20;99.90;;;;;;10297318;28;20053;-61
2022/01/18 18:14:49;;;;;;;1.63;0.40;;;7.20;98.00;;;;;;10261208;28;1023800;-61
2022/01/18 18:19:50;;;;;;;5.07;2.10;;;7.20;97.40;;;;;;10297902;28;20065;-60
2022/01/18 18:24:52;;;;;;;1.65;0.32;;;7.20;97.00;;;;;;10296251;28;20498;-61
2022/01/18 18:29:54;;;;;;;1.02;0.40;;;7.10;98.10;;;;;;10299239;28;20625;-61
2022/01/18 18:34:56;;;;;;;0.40;0.30;;;7.10;96.80;;;;;;10296435;28;20046;-60
2022/01/18 18:40:09;;;;;;;3.65;0.20;;;7.10;95.40;;;;;;10295988;28;20077;-61
2022/01/18 18:45:10;;;;;;;1.48;0.30;;;7.20;96.80;;;;;;10296589;28;20071;-61
2022/01/18 18:50:13;;;;;;;4.95;0.50;;;7.10;95.70;;;;;;10293791;28;20101;-60
2022/01/18 18:55:16;;;;;;;1.67;0.43;;;7.20;96.30;;;;;;10292798;28;20747;-61
2022/01/18 19:05:46;;;;;;;4.53;1.73;;;7.10;97.30;;;;;;10302306;28;20132;-60
2022/01/18 19:10:49;;;;;;;;;;;7.10;99.60;;;;;;10301799;28;20093;-61
2022/01/18 19:15:52;;;;;;;1.00;0.50;;;7.10;97.90;;;;;;10303661;28;19987;-60
2022/01/18 19:20:57;;;;;;;4.15;1.23;;;7.10;98.60;;;;;;10301955;28;20101;-61
2022/01/18 19:25:59;;;;;;;5.82;2.83;;;7.10;99.00;;;;;;10299033;28;20445;-60
2022/01/18 19:31:01;;;;;;;3.13;0.90;;;7.00;98.80;;;;;;10305920;28;20042;-60
2022/01/18 19:36:04;;;;;;;1.80;0.50;;;7.00;99.50;;;;;;10301448;28;20065;-60
2022/01/18 19:41:06;;;;;;;2.45;0.65;;;7.00;99.70;;;;;;10302965;28;20050;-61
2022/01/18 19:46:08;;;;;;;1.20;0.45;;;7.00;99.60;;;;;;10296759;28;20188;-60
2022/01/18 19:51:10;;;;;;;2.90;0.38;;;7.00;99.90;;;;;;10300794;28;20038;-61
2022/01/18 19:56:11;;;;;;;1.92;0.90;;;7.00;99.90;;;;;;10303185;28;20134;-61
2022/01/18 20:01:13;;;;;;;1.83;0.80;;;7.00;99.90;;;;;;10300782;28;20505;-60
2022/01/18 20:06:15;;;;;;;1.70;1.00;;;7.00;99.90;;;;;;10302571;28;20121;-60
2022/01/18 20:11:17;;;;;;;2.05;0.80;;;7.00;99.90;;;;;;10308453;28;20054;-61
2022/01/18 20:16:20;;;;;;;1.45;1.20;;;6.90;99.90;;;;;;10294727;28;20054;-60
2022/01/18 20:21:22;;;;;;;2.90;0.98;;;6.90;99.90;;;;;;10296233;28;20050;-60
2022/01/18 20:26:25;;;;;;;3.17;0.80;;;6.90;99.90;;;;;;10300268;28;20198;-60
2022/01/18 20:31:29;;;;;;;1.83;0.90;;;6.90;99.90;;;;;;10306632;28;20108;-60
2022/01/18 20:36:31;;;;;;;3.72;1.08;;;6.90;99.90;;;;;;10301548;28;20047;-60
2022/01/18 20:47:07;;;;;;;2.22;1.13;;;6.90;99.90;;;;;;10303483;28;20453;-60
2022/01/18 20:52:09;;;;;;;2.20;0.68;;;6.80;99.90;;;;;;10306035;28;20093;-60
2022/01/18 20:57:10;;;;;;;3.30;0.88;;;6.80;99.90;;;;;;10306776;28;20193;-60
2022/01/18 21:02:12;;;;;;;2.30;1.10;;;6.80;99.90;;;;;;10057912;28;20062;-60
2022/01/18 21:07:14;;;;;;;3.72;1.00;;;6.80;99.90;;;;;;10306822;28;20074;-60
2022/01/18 21:12:15;;;;;;;1.35;0.55;;;6.80;99.90;;;;;;10300947;28;20113;-61
2022/01/18 21:17:22;;;;;;;2.20;0.73;;;6.80;99.90;;;;;;10301936;28;20078;-61
2022/01/18 21:22:24;;;;;;;2.35;0.80;;;6.80;99.90;;;;;;10298778;28;20579;-60
2022/01/18 21:27:25;;;;;;;4.18;1.38;;;6.70;99.90;;;;;;10304005;28;20137;-60
2022/01/18 21:32:27;;;;;;;2.05;0.40;;;6.70;99.90;;;;;;10304670;28;20041;-60
2022/01/18 21:37:28;;;;;;;2.83;0.50;;;6.70;99.90;;;;;;10302636;28;20085;-61
2022/01/18 21:42:31;;;;;;;0.57;0.30;;;6.70;99.90;;;;;;10304866;28;20078;-61
2022/01/18 21:47:33;;;;;;;1.35;0.52;;;6.70;99.90;;;;;;10301128;28;20136;-60
2022/01/18 21:52:35;;;;;;;0.93;0.30;;;6.70;99.90;;;;;;10300894;28;20074;-62
2022/01/18 21:57:37;;;;;;;1.08;0.30;;;6.60;99.90;;;;;;10295273;28;20046;-61
2022/01/18 22:02:39;;;;;;;1.58;0.45;;;6.60;99.90;;;;;;10287073;28;20050;-62
2022/01/18 22:07:43;;;;;;;1.52;0.40;;;6.60;99.90;;;;;;10304123;28;20064;-61
2022/01/18 22:12:45;;;;;;;1.08;0.40;;;6.50;99.90;;;;;;10300924;28;20069;-61
2022/01/18 22:17:47;;;;;;;1.45;0.30;;;6.50;99.90;;;;;;10305236;28;20046;-61
2022/01/18 22:22:48;;;;;;;1.38;0.57;;;6.50;99.90;;;;;;10300707;28;20741;-62
2022/01/18 22:27:51;;;;;;;1.23;0.40;;;6.50;99.90;;;;;;10304715;28;20125;-60
2022/01/18 22:32:53;;;;;;;0.45;0.38;;;6.50;99.90;;;;;;10298680;28;20142;-61
2022/01/18 22:37:55;;;;;;;1.00;0.38;;;6.50;99.90;;;;;;10297209;28;20077;-61
2022/01/18 22:42:57;;;;;;;1.45;0.40;;;6.40;99.90;;;;;;10308752;28;20429;-61
2022/01/18 22:47:58;;;;;;;0.90;0.30;;;6.40;99.90;;;;;;10308255;28;20062;-60
2022/01/18 22:53:00;;;;;;;0.93;0.47;;;6.50;99.40;;;;;;10311470;28;20137;-61
2022/01/18 22:58:03;;;;;;;1.13;0.50;;;6.40;99.90;;;;;;10299695;28;20152;-60
2022/01/18 23:03:04;;;;;;;1.33;0.50;;;6.30;99.90;;;;;;10306443;28;20046;-60
2022/01/18 23:08:07;;;;;;;0.80;0.40;;;6.30;98.20;;;;;;10307558;28;20054;-61
2022/01/18 23:13:08;;;;;;;0.85;0.50;;;6.20;99.00;;;;;;10306735;28;20090;-61
2022/01/18 23:18:10;;;;;;;0.50;0.30;;;6.30;99.90;;;;;;10307010;28;20089;-61
2022/01/18 23:23:12;;;;;;;1.27;0.40;;;6.20;99.50;;;;;;10304664;28;20070;-61
2022/01/18 23:28:14;;;;;;;2.78;0.50;;;6.20;99.90;;;;;;10307235;28;20456;-60
2022/01/18 23:33:16;;;;;;;0.60;0.40;;;6.10;99.40;;;;;;10301984;28;20506;-61
2022/01/18 23:38:27;;;;;;;0.30;0.30;;;6.10;99.90;;;;;;10304825;28;20070;-62
2022/01/18 23:43:29;;;;;;;2.22;0.47;;;6.10;99.90;;;;;;10309121;28;20124;-60
2022/01/18 23:48:31;;;;;;;1.45;0.50;;;6.10;99.90;;;;;;10303617;28;20061;-61
2022/01/18 23:53:33;;;;;;;0.47;0.30;;;6.10;99.90;;;;;;10307043;28;20085;-61
2022/01/18 23:58:35;;;;;;;0.57;0.30;;;6.10;99.90;;;;;;10304282;28;20141;-61
